sensor_id;sensor_type;location;lat;lon;timestamp;temperature;humidity
9193;DHT22;4631;49.296;10.560;2022-07-23T00:01:04;22.80;99.90
9193;DHT22;4631;49.296;10.560;2022-07-23T00:03:35;22.80;99.90
9193;DHT22;4631;49.296;10.560;2022-07-23T00:06:02;22.80;99.90
9193;DHT22;4631;49.296;10.560;2022-07-23T00:08:28;22.70;99.90
9193;DHT22;4631;49.296;10.560;2022-07-23T00:10:55;22.60;99.90
9193;DHT22;4631;49.296;10.560;2022-07-23T00:13:23;22.60;99.90
9193;DHT22;4631;49.296;10.560;2022-07-23T00:15:50;22.60;99.90
9193;DHT22;4631;49.296;10.560;2022-07-23T00:18:16;22.60;99.90
9193;DHT22;4631;49.296;10.560;2022-07-23T00:20:43;22.60;99.90
9193;DHT22;4631;49.296;10.560;2022-07-23T00:23:10;22.50;99.90
9193;DHT22;4631;49.296;10.560;2022-07-23T00:25:36;22.50;99.90
9193;DHT22;4631;49.296;10.560;2022-07-23T00:28:06;22.60;99.90
9193;DHT22;4631;49.296;10.560;2022-07-23T00:30:34;22.50;99.90
9193;DHT22;4631;49.296;10.560;2022-07-23T00:33:02;22.50;99.90
9193;DHT22;4631;49.296;10.560;2022-07-23T00:35:30;22.50;99.90
9193;DHT22;4631;49.296;10.560;2022-07-23T00:37:57;22.40;99.90
9193;DHT22;4631;49.296;10.560;2022-07-23T00:40:24;22.30;99.90
9193;DHT22;4631;49.296;10.560;2022-07-23T00:42:51;22.20;99.90
9193;DHT22;4631;49.296;10.560;2022-07-23T00:45:18;22.20;99.90
9193;DHT22;4631;49.296;10.560;2022-07-23T00:47:47;22.20;99.90
9193;DHT22;4631;49.296;10.560;2022-07-23T00:50:14;22.20;99.90
9193;DHT22;4631;49.296;10.560;2022-07-23T00:52:41;22.20;99.90
9193;DHT22;4631;49.296;10.560;2022-07-23T00:55:08;22.20;99.90
9193;DHT22;4631;49.296;10.560;2022-07-23T00:57:35;22.20;99.90
9193;DHT22;4631;49.296;10.560;2022-07-23T01:00:03;22.20;99.90
9193;DHT22;4631;49.296;10.560;2022-07-23T01:02:30;22.30;99.90
9193;DHT22;4631;49.296;10.560;2022-07-23T01:04:58;22.20;99.90
9193;DHT22;4631;49.296;10.560;2022-07-23T01:07:24;22.20;99.90
9193;DHT22;4631;49.296;10.560;2022-07-23T01:09:51;22.10;99.90
9193;DHT22;4631;49.296;10.560;2022-07-23T01:12:18;22.10;99.90
9193;DHT22;4631;49.296;10.560;2022-07-23T01:14:45;22.10;99.90
9193;DHT22;4631;49.296;10.560;2022-07-23T01:17:11;22.10;99.90
9193;DHT22;4631;49.296;10.560;2022-07-23T01:19:38;22.10;99.90
9193;DHT22;4631;49.296;10.560;2022-07-23T01:22:06;22.10;99.90
9193;DHT22;4631;49.296;10.560;2022-07-23T01:24:34;22.10;99.90
9193;DHT22;4631;49.296;10.560;2022-07-23T01:27:01;22.10;99.90
9193;DHT22;4631;49.296;10.560;2022-07-23T01:29:27;22.10;99.90
9193;DHT22;4631;49.296;10.560;2022-07-23T01:31:54;22.10;99.90
9193;DHT22;4631;49.296;10.560;2022-07-23T01:34:21;22.20;99.90
9193;DHT22;4631;49.296;10.560;2022-07-23T01:36:47;22.20;99.90
9193;DHT22;4631;49.296;10.560;2022-07-23T01:39:14;22.20;99.90
9193;DHT22;4631;49.296;10.560;2022-07-23T01:41:42;22.20;99.90
9193;DHT22;4631;49.296;10.560;2022-07-23T01:44:08;22.20;99.90
9193;DHT22;4631;49.296;10.560;2022-07-23T01:46:35;22.20;99.90
9193;DHT22;4631;49.296;10.560;2022-07-23T01:49:02;22.30;99.90
9193;DHT22;4631;49.296;10.560;2022-07-23T01:51:28;22.20;99.90
9193;DHT22;4631;49.296;10.560;2022-07-23T01:53:55;22.30;99.90
9193;DHT22;4631;49.296;10.560;2022-07-23T01:56:22;22.30;99.90
9193;DHT22;4631;49.296;10.560;2022-07-23T01:58:50;22.30;99.90
9193;DHT22;4631;49.296;10.560;2022-07-23T02:01:16;22.30;99.90
9193;DHT22;4631;49.296;10.560;2022-07-23T02:03:43;22.40;99.90
9193;DHT22;4631;49.296;10.560;2022-07-23T02:06:10;22.40;99.90
9193;DHT22;4631;49.296;10.560;2022-07-23T02:08:36;22.40;99.90
9193;DHT22;4631;49.296;10.560;2022-07-23T02:11:03;22.40;99.90
9193;DHT22;4631;49.296;10.560;2022-07-23T02:13:30;22.50;99.90
9193;DHT22;4631;49.296;10.560;2022-07-23T02:15:58;22.50;99.90
9193;DHT22;4631;49.296;10.560;2022-07-23T02:18:24;22.50;99.90
9193;DHT22;4631;49.296;10.560;2022-07-23T02:20:51;22.50;99.90
9193;DHT22;4631;49.296;10.560;2022-07-23T02:23:18;22.60;99.90
9193;DHT22;4631;49.296;10.560;2022-07-23T02:25:44;22.70;99.90
9193;DHT22;4631;49.296;10.560;2022-07-23T02:28:11;22.70;99.90
9193;DHT22;4631;49.296;10.560;2022-07-23T02:30:38;22.80;99.90
9193;DHT22;4631;49.296;10.560;2022-07-23T02:33:06;22.80;99.90
9193;DHT22;4631;49.296;10.560;2022-07-23T02:35:33;22.90;99.90
9193;DHT22;4631;49.296;10.560;2022-07-23T02:37:59;22.90;99.90
9193;DHT22;4631;49.296;10.560;2022-07-23T02:40:26;22.90;99.90
9193;DHT22;4631;49.296;10.560;2022-07-23T02:42:53;22.90;99.90
9193;DHT22;4631;49.296;10.560;2022-07-23T02:45:19;22.90;99.90
9193;DHT22;4631;49.296;10.560;2022-07-23T02:47:46;22.90;99.90
9193;DHT22;4631;49.296;10.560;2022-07-23T02:50:14;23.00;99.90
9193;DHT22;4631;49.296;10.560;2022-07-23T02:52:41;23.00;99.90
9193;DHT22;4631;49.296;10.560;2022-07-23T02:55:07;23.00;99.90
9193;DHT22;4631;49.296;10.560;2022-07-23T02:57:34;23.00;99.90
9193;DHT22;4631;49.296;10.560;2022-07-23T03:00:01;22.90;99.90
9193;DHT22;4631;49.296;10.560;2022-07-23T03:02:27;22.90;99.90
9193;DHT22;4631;49.296;10.560;2022-07-23T03:04:54;22.90;99.90
9193;DHT22;4631;49.296;10.560;2022-07-23T03:07:22;22.90;99.90
9193;DHT22;4631;49.296;10.560;2022-07-23T03:09:49;22.90;99.90
9193;DHT22;4631;49.296;10.560;2022-07-23T03:12:15;22.90;99.90
9193;DHT22;4631;49.296;10.560;2022-07-23T03:14:42;22.80;99.90
9193;DHT22;4631;49.296;10.560;2022-07-23T03:17:09;22.80;99.90
9193;DHT22;4631;49.296;10.560;2022-07-23T03:19:35;22.80;99.90
9193;DHT22;4631;49.296;10.560;2022-07-23T03:22:04;22.80;99.90
9193;DHT22;4631;49.296;10.560;2022-07-23T03:24:32;22.80;99.90
9193;DHT22;4631;49.296;10.560;2022-07-23T03:27:12;22.80;99.90
9193;DHT22;4631;49.296;10.560;2022-07-23T03:29:39;22.70;99.90
9193;DHT22;4631;49.296;10.560;2022-07-23T03:32:06;22.70;99.90
9193;DHT22;4631;49.296;10.560;2022-07-23T03:34:32;22.70;99.90
9193;DHT22;4631;49.296;10.560;2022-07-23T03:36:59;22.70;99.90
9193;DHT22;4631;49.296;10.560;2022-07-23T03:39:26;22.70;99.90
9193;DHT22;4631;49.296;10.560;2022-07-23T03:41:54;22.60;99.90
9193;DHT22;4631;49.296;10.560;2022-07-23T03:44:21;22.60;99.90
9193;DHT22;4631;49.296;10.560;2022-07-23T03:46:47;22.70;99.90
9193;DHT22;4631;49.296;10.560;2022-07-23T03:49:14;22.60;99.90
9193;DHT22;4631;49.296;10.560;2022-07-23T03:51:40;22.60;99.90
9193;DHT22;4631;49.296;10.560;2022-07-23T03:54:07;22.60;99.90
9193;DHT22;4631;49.296;10.560;2022-07-23T03:56:34;22.60;99.90
9193;DHT22;4631;49.296;10.560;2022-07-23T03:59:02;22.60;99.90
9193;DHT22;4631;49.296;10.560;2022-07-23T04:01:28;22.60;99.90
9193;DHT22;4631;49.296;10.560;2022-07-23T04:03:55;22.60;99.90
9193;DHT22;4631;49.296;10.560;2022-07-23T04:06:22;22.60;99.90
9193;DHT22;4631;49.296;10.560;2022-07-23T04:08:48;22.60;99.90
9193;DHT22;4631;49.296;10.560;2022-07-23T04:11:15;22.50;99.90
9193;DHT22;4631;49.296;10.560;2022-07-23T04:13:42;22.60;99.90
9193;DHT22;4631;49.296;10.560;2022-07-23T04:16:10;22.50;99.90
9193;DHT22;4631;49.296;10.560;2022-07-23T04:18:36;22.50;99.90
9193;DHT22;4631;49.296;10.560;2022-07-23T04:21:03;22.50;99.90
9193;DHT22;4631;49.296;10.560;2022-07-23T04:23:30;22.50;99.90
9193;DHT22;4631;49.296;10.560;2022-07-23T04:25:56;22.50;99.90
9193;DHT22;4631;49.296;10.560;2022-07-23T04:28:23;22.50;99.90
9193;DHT22;4631;49.296;10.560;2022-07-23T04:30:50;22.50;99.90
9193;DHT22;4631;49.296;10.560;2022-07-23T04:33:18;22.50;99.90
9193;DHT22;4631;49.296;10.560;2022-07-23T04:35:45;22.60;99.90
9193;DHT22;4631;49.296;10.560;2022-07-23T04:38:11;22.50;99.90
9193;DHT22;4631;49.296;10.560;2022-07-23T04:40:38;22.50;99.90
9193;DHT22;4631;49.296;10.560;2022-07-23T04:43:04;22.50;99.90
9193;DHT22;4631;49.296;10.560;2022-07-23T04:45:31;22.50;99.90
9193;DHT22;4631;49.296;10.560;2022-07-23T04:47:58;22.50;99.90
9193;DHT22;4631;49.296;10.560;2022-07-23T04:50:26;22.50;99.90
9193;DHT22;4631;49.296;10.560;2022-07-23T04:52:52;22.40;99.90
9193;DHT22;4631;49.296;10.560;2022-07-23T04:55:19;22.40;99.90
9193;DHT22;4631;49.296;10.560;2022-07-23T04:57:46;22.40;99.90
9193;DHT22;4631;49.296;10.560;2022-07-23T05:00:13;22.50;99.90
9193;DHT22;4631;49.296;10.560;2022-07-23T05:02:39;22.50;99.90
9193;DHT22;4631;49.296;10.560;2022-07-23T05:05:06;22.60;99.90
9193;DHT22;4631;49.296;10.560;2022-07-23T05:07:34;22.60;99.90
9193;DHT22;4631;49.296;10.560;2022-07-23T05:10:01;22.60;99.90
9193;DHT22;4631;49.296;10.560;2022-07-23T05:12:28;22.70;99.90
9193;DHT22;4631;49.296;10.560;2022-07-23T05:14:54;22.80;99.90
9193;DHT22;4631;49.296;10.560;2022-07-23T05:17:21;22.80;99.90
9193;DHT22;4631;49.296;10.560;2022-07-23T05:19:48;22.90;99.90
9193;DHT22;4631;49.296;10.560;2022-07-23T05:22:14;22.90;99.90
9193;DHT22;4631;49.296;10.560;2022-07-23T05:24:42;22.90;99.90
9193;DHT22;4631;49.296;10.560;2022-07-23T05:27:09;23.00;99.90
9193;DHT22;4631;49.296;10.560;2022-07-23T05:29:36;23.10;99.90
9193;DHT22;4631;49.296;10.560;2022-07-23T05:32:02;23.10;99.90
9193;DHT22;4631;49.296;10.560;2022-07-23T05:34:29;23.20;99.90
9193;DHT22;4631;49.296;10.560;2022-07-23T05:36:56;23.20;99.90
9193;DHT22;4631;49.296;10.560;2022-07-23T05:39:22;23.20;99.90
9193;DHT22;4631;49.296;10.560;2022-07-23T05:41:50;23.30;99.90
9193;DHT22;4631;49.296;10.560;2022-07-23T05:44:17;23.30;99.90
9193;DHT22;4631;49.296;10.560;2022-07-23T05:46:44;23.20;99.90
9193;DHT22;4631;49.296;10.560;2022-07-23T05:49:10;23.30;99.90
9193;DHT22;4631;49.296;10.560;2022-07-23T05:51:37;23.30;99.90
9193;DHT22;4631;49.296;10.560;2022-07-23T05:54:04;23.30;99.90
9193;DHT22;4631;49.296;10.560;2022-07-23T05:56:30;23.40;99.90
9193;DHT22;4631;49.296;10.560;2022-07-23T05:58:58;23.50;99.90
9193;DHT22;4631;49.296;10.560;2022-07-23T06:01:25;23.60;99.90
9193;DHT22;4631;49.296;10.560;2022-07-23T06:03:52;23.70;99.90
9193;DHT22;4631;49.296;10.560;2022-07-23T06:06:18;23.80;99.90
9193;DHT22;4631;49.296;10.560;2022-07-23T06:08:45;23.80;99.90
9193;DHT22;4631;49.296;10.560;2022-07-23T06:11:12;24.00;99.90
9193;DHT22;4631;49.296;10.560;2022-07-23T06:13:38;24.00;99.90
9193;DHT22;4631;49.296;10.560;2022-07-23T06:16:06;24.10;99.90
9193;DHT22;4631;49.296;10.560;2022-07-23T06:18:33;24.20;99.90
9193;DHT22;4631;49.296;10.560;2022-07-23T06:21:00;24.10;99.90
9193;DHT22;4631;49.296;10.560;2022-07-23T06:23:26;24.20;99.90
9193;DHT22;4631;49.296;10.560;2022-07-23T06:25:53;24.30;99.90
9193;DHT22;4631;49.296;10.560;2022-07-23T06:28:20;24.30;99.90
9193;DHT22;4631;49.296;10.560;2022-07-23T06:30:46;24.30;99.90
9193;DHT22;4631;49.296;10.560;2022-07-23T06:33:15;24.40;99.90
9193;DHT22;4631;49.296;10.560;2022-07-23T06:35:41;24.40;99.90
9193;DHT22;4631;49.296;10.560;2022-07-23T06:38:08;24.50;99.90
9193;DHT22;4631;49.296;10.560;2022-07-23T06:40:34;24.50;99.90
9193;DHT22;4631;49.296;10.560;2022-07-23T06:43:01;24.40;99.90
9193;DHT22;4631;49.296;10.560;2022-07-23T06:45:28;24.40;99.90
9193;DHT22;4631;49.296;10.560;2022-07-23T06:47:54;24.40;99.90
9193;DHT22;4631;49.296;10.560;2022-07-23T06:50:23;24.30;99.90
9193;DHT22;4631;49.296;10.560;2022-07-23T06:52:49;24.30;99.90
9193;DHT22;4631;49.296;10.560;2022-07-23T06:55:16;24.30;99.90
9193;DHT22;4631;49.296;10.560;2022-07-23T06:57:42;24.20;99.90
9193;DHT22;4631;49.296;10.560;2022-07-23T07:00:10;24.10;99.90
9193;DHT22;4631;49.296;10.560;2022-07-23T07:02:36;24.00;99.90
9193;DHT22;4631;49.296;10.560;2022-07-23T07:05:03;23.90;99.90
9193;DHT22;4631;49.296;10.560;2022-07-23T07:07:31;23.80;99.90
9193;DHT22;4631;49.296;10.560;2022-07-23T07:09:58;23.80;99.90
9193;DHT22;4631;49.296;10.560;2022-07-23T07:12:25;23.70;99.90
9193;DHT22;4631;49.296;10.560;2022-07-23T07:14:51;23.60;99.90
9193;DHT22;4631;49.296;10.560;2022-07-23T07:17:18;23.60;99.90
9193;DHT22;4631;49.296;10.560;2022-07-23T07:19:45;23.60;99.90
9193;DHT22;4631;49.296;10.560;2022-07-23T07:22:12;23.60;99.90
9193;DHT22;4631;49.296;10.560;2022-07-23T07:24:41;23.60;99.90
9193;DHT22;4631;49.296;10.560;2022-07-23T07:27:07;23.60;99.90
9193;DHT22;4631;49.296;10.560;2022-07-23T07:29:34;23.60;99.90
9193;DHT22;4631;49.296;10.560;2022-07-23T07:32:01;23.60;99.90
9193;DHT22;4631;49.296;10.560;2022-07-23T07:34:27;23.60;99.90
9193;DHT22;4631;49.296;10.560;2022-07-23T07:36:54;23.60;99.90
9193;DHT22;4631;49.296;10.560;2022-07-23T07:39:22;23.70;99.90
9193;DHT22;4631;49.296;10.560;2022-07-23T07:41:50;23.60;99.90
9193;DHT22;4631;49.296;10.560;2022-07-23T07:44:16;23.60;99.90
9193;DHT22;4631;49.296;10.560;2022-07-23T07:46:43;23.60;99.90
9193;DHT22;4631;49.296;10.560;2022-07-23T07:49:10;23.60;99.90
9193;DHT22;4631;49.296;10.560;2022-07-23T07:51:36;23.60;99.90
9193;DHT22;4631;49.296;10.560;2022-07-23T07:54:03;23.60;99.90
9193;DHT22;4631;49.296;10.560;2022-07-23T07:56:30;23.70;99.90
9193;DHT22;4631;49.296;10.560;2022-07-23T07:58:58;23.60;99.90
9193;DHT22;4631;49.296;10.560;2022-07-23T08:01:25;23.60;99.90
9193;DHT22;4631;49.296;10.560;2022-07-23T08:03:52;23.60;99.90
9193;DHT22;4631;49.296;10.560;2022-07-23T08:06:19;23.60;99.90
9193;DHT22;4631;49.296;10.560;2022-07-23T08:08:46;23.60;99.90
9193;DHT22;4631;49.296;10.560;2022-07-23T08:11:12;23.50;99.90
9193;DHT22;4631;49.296;10.560;2022-07-23T08:13:39;23.30;99.90
9193;DHT22;4631;49.296;10.560;2022-07-23T08:16:07;23.20;99.90
9193;DHT22;4631;49.296;10.560;2022-07-23T08:18:34;23.00;99.90
9193;DHT22;4631;49.296;10.560;2022-07-23T08:21:01;22.90;99.90
9193;DHT22;4631;49.296;10.560;2022-07-23T08:23:29;22.60;99.90
9193;DHT22;4631;49.296;10.560;2022-07-23T08:25:57;22.50;99.90
9193;DHT22;4631;49.296;10.560;2022-07-23T08:28:25;22.30;99.90
9193;DHT22;4631;49.296;10.560;2022-07-23T08:30:51;22.10;99.90
9193;DHT22;4631;49.296;10.560;2022-07-23T08:33:19;21.90;99.90
9193;DHT22;4631;49.296;10.560;2022-07-23T08:35:46;21.70;99.90
9193;DHT22;4631;49.296;10.560;2022-07-23T08:38:14;21.70;99.90
9193;DHT22;4631;49.296;10.560;2022-07-23T08:40:41;21.50;99.90
9193;DHT22;4631;49.296;10.560;2022-07-23T08:43:08;21.40;99.90
9193;DHT22;4631;49.296;10.560;2022-07-23T08:45:36;21.10;99.90
9193;DHT22;4631;49.296;10.560;2022-07-23T08:48:03;21.00;99.90
9193;DHT22;4631;49.296;10.560;2022-07-23T08:50:32;20.90;99.90
9193;DHT22;4631;49.296;10.560;2022-07-23T08:53:02;20.60;99.90
9193;DHT22;4631;49.296;10.560;2022-07-23T08:55:28;20.40;99.90
9193;DHT22;4631;49.296;10.560;2022-07-23T08:57:55;20.20;99.90
9193;DHT22;4631;49.296;10.560;2022-07-23T09:00:22;20.00;99.90
9193;DHT22;4631;49.296;10.560;2022-07-23T09:02:49;19.90;99.90
9193;DHT22;4631;49.296;10.560;2022-07-23T09:08:06;19.70;99.90
9193;DHT22;4631;49.296;10.560;2022-07-23T09:10:43;19.80;99.90
9193;DHT22;4631;49.296;10.560;2022-07-23T09:13:22;19.80;99.90
9193;DHT22;4631;49.296;10.560;2022-07-23T09:15:49;19.80;99.90
9193;DHT22;4631;49.296;10.560;2022-07-23T09:18:16;19.90;99.90
9193;DHT22;4631;49.296;10.560;2022-07-23T09:20:43;19.90;99.90
9193;DHT22;4631;49.296;10.560;2022-07-23T09:23:12;20.00;99.90
9193;DHT22;4631;49.296;10.560;2022-07-23T09:25:39;20.10;99.90
9193;DHT22;4631;49.296;10.560;2022-07-23T09:28:05;20.00;99.90
9193;DHT22;4631;49.296;10.560;2022-07-23T09:30:33;20.00;99.90
9193;DHT22;4631;49.296;10.560;2022-07-23T09:33:04;20.00;99.90
9193;DHT22;4631;49.296;10.560;2022-07-23T09:35:43;20.00;99.90
9193;DHT22;4631;49.296;10.560;2022-07-23T09:38:10;19.90;99.90
9193;DHT22;4631;49.296;10.560;2022-07-23T09:40:38;20.00;99.90
9193;DHT22;4631;49.296;10.560;2022-07-23T09:43:05;20.00;99.90
9193;DHT22;4631;49.296;10.560;2022-07-23T09:45:32;20.00;99.90
9193;DHT22;4631;49.296;10.560;2022-07-23T09:48:09;20.10;99.90
9193;DHT22;4631;49.296;10.560;2022-07-23T09:50:36;20.10;99.90
9193;DHT22;4631;49.296;10.560;2022-07-23T09:53:03;20.20;99.90
9193;DHT22;4631;49.296;10.560;2022-07-23T09:55:31;20.20;99.90
9193;DHT22;4631;49.296;10.560;2022-07-23T09:58:01;20.30;99.90
9193;DHT22;4631;49.296;10.560;2022-07-23T10:00:29;20.40;99.90
9193;DHT22;4631;49.296;10.560;2022-07-23T10:02:56;20.40;99.90
9193;DHT22;4631;49.296;10.560;2022-07-23T10:05:23;20.50;99.90
9193;DHT22;4631;49.296;10.560;2022-07-23T10:07:50;20.60;99.90
9193;DHT22;4631;49.296;10.560;2022-07-23T10:10:17;20.60;99.90
9193;DHT22;4631;49.296;10.560;2022-07-23T10:12:44;20.70;99.90
9193;DHT22;4631;49.296;10.560;2022-07-23T10:15:23;20.60;99.90
9193;DHT22;4631;49.296;10.560;2022-07-23T10:17:51;20.60;99.90
9193;DHT22;4631;49.296;10.560;2022-07-23T10:20:17;20.70;99.90
9193;DHT22;4631;49.296;10.560;2022-07-23T10:22:47;20.60;99.90
9193;DHT22;4631;49.296;10.560;2022-07-23T10:25:21;20.60;99.90
9193;DHT22;4631;49.296;10.560;2022-07-23T10:28:00;20.60;99.90
9193;DHT22;4631;49.296;10.560;2022-07-23T10:30:33;20.70;99.90
9193;DHT22;4631;49.296;10.560;2022-07-23T10:33:09;20.90;99.90
9193;DHT22;4631;49.296;10.560;2022-07-23T10:35:41;21.00;99.90
9193;DHT22;4631;49.296;10.560;2022-07-23T10:38:10;21.20;99.90
9193;DHT22;4631;49.296;10.560;2022-07-23T10:40:49;21.30;99.90
9193;DHT22;4631;49.296;10.560;2022-07-23T10:43:19;21.30;99.90
9193;DHT22;4631;49.296;10.560;2022-07-23T10:45:47;21.20;99.90
9193;DHT22;4631;49.296;10.560;2022-07-23T10:48:14;21.20;99.90
9193;DHT22;4631;49.296;10.560;2022-07-23T10:50:41;21.20;99.90
9193;DHT22;4631;49.296;10.560;2022-07-23T10:53:15;21.20;99.90
9193;DHT22;4631;49.296;10.560;2022-07-23T10:55:44;21.20;99.90
9193;DHT22;4631;49.296;10.560;2022-07-23T10:58:11;21.10;99.90
9193;DHT22;4631;49.296;10.560;2022-07-23T11:00:37;21.20;99.90
9193;DHT22;4631;49.296;10.560;2022-07-23T11:03:27;21.20;99.90
9193;DHT22;4631;49.296;10.560;2022-07-23T11:05:52;21.30;99.90
9193;DHT22;4631;49.296;10.560;2022-07-23T11:08:19;21.40;99.90
9193;DHT22;4631;49.296;10.560;2022-07-23T11:10:47;21.60;99.90
9193;DHT22;4631;49.296;10.560;2022-07-23T11:16:05;22.10;99.90
9193;DHT22;4631;49.296;10.560;2022-07-23T11:24:08;22.60;99.90
9193;DHT22;4631;49.296;10.560;2022-07-23T11:32:01;22.90;99.90
9193;DHT22;4631;49.296;10.560;2022-07-23T11:34:29;23.10;99.90
9193;DHT22;4631;49.296;10.560;2022-07-23T11:36:56;23.40;99.90
9193;DHT22;4631;49.296;10.560;2022-07-23T11:39:25;23.70;99.90
9193;DHT22;4631;49.296;10.560;2022-07-23T11:41:51;23.90;99.90
9193;DHT22;4631;49.296;10.560;2022-07-23T11:44:24;24.20;99.90
9193;DHT22;4631;49.296;10.560;2022-07-23T11:46:55;24.40;99.90
9193;DHT22;4631;49.296;10.560;2022-07-23T11:49:22;24.60;99.90
9193;DHT22;4631;49.296;10.560;2022-07-23T11:52:01;24.80;99.90
9193;DHT22;4631;49.296;10.560;2022-07-23T11:54:30;24.90;99.90
9193;DHT22;4631;49.296;10.560;2022-07-23T11:56:57;25.10;99.90
9193;DHT22;4631;49.296;10.560;2022-07-23T11:59:24;25.20;99.90
9193;DHT22;4631;49.296;10.560;2022-07-23T12:01:55;25.30;99.90
9193;DHT22;4631;49.296;10.560;2022-07-23T12:04:22;25.40;99.90
9193;DHT22;4631;49.296;10.560;2022-07-23T12:06:49;25.40;99.90
9193;DHT22;4631;49.296;10.560;2022-07-23T12:09:15;25.60;99.90
9193;DHT22;4631;49.296;10.560;2022-07-23T12:11:57;25.70;99.90
9193;DHT22;4631;49.296;10.560;2022-07-23T12:14:23;25.90;99.90
9193;DHT22;4631;49.296;10.560;2022-07-23T12:19:31;26.20;99.90
9193;DHT22;4631;49.296;10.560;2022-07-23T12:21:58;26.40;99.90
9193;DHT22;4631;49.296;10.560;2022-07-23T12:24:25;26.50;99.90
9193;DHT22;4631;49.296;10.560;2022-07-23T12:27:09;26.60;99.90
9193;DHT22;4631;49.296;10.560;2022-07-23T12:29:36;26.80;99.90
9193;DHT22;4631;49.296;10.560;2022-07-23T12:32:15;26.80;99.90
9193;DHT22;4631;49.296;10.560;2022-07-23T12:34:42;26.90;99.90
9193;DHT22;4631;49.296;10.560;2022-07-23T12:37:23;27.00;99.90
9193;DHT22;4631;49.296;10.560;2022-07-23T12:39:50;27.10;99.90
9193;DHT22;4631;49.296;10.560;2022-07-23T12:42:18;27.10;99.90
9193;DHT22;4631;49.296;10.560;2022-07-23T12:47:27;27.40;99.90
9193;DHT22;4631;49.296;10.560;2022-07-23T12:49:53;27.50;99.90
9193;DHT22;4631;49.296;10.560;2022-07-23T12:52:20;27.60;99.90
9193;DHT22;4631;49.296;10.560;2022-07-23T12:54:46;27.70;99.90
9193;DHT22;4631;49.296;10.560;2022-07-23T12:57:13;27.70;99.90
9193;DHT22;4631;49.296;10.560;2022-07-23T12:59:41;27.70;99.90
9193;DHT22;4631;49.296;10.560;2022-07-23T13:02:08;27.70;99.90
9193;DHT22;4631;49.296;10.560;2022-07-23T13:04:35;27.90;99.90
9193;DHT22;4631;49.296;10.560;2022-07-23T13:07:02;27.90;99.90
9193;DHT22;4631;49.296;10.560;2022-07-23T13:09:29;28.00;99.90
9193;DHT22;4631;49.296;10.560;2022-07-23T13:11:56;28.20;99.90
9193;DHT22;4631;49.296;10.560;2022-07-23T13:14:24;28.20;99.90
9193;DHT22;4631;49.296;10.560;2022-07-23T13:16:52;28.00;99.90
9193;DHT22;4631;49.296;10.560;2022-07-23T13:19:19;27.90;99.90
9193;DHT22;4631;49.296;10.560;2022-07-23T13:21:47;27.90;99.90
9193;DHT22;4631;49.296;10.560;2022-07-23T13:24:14;27.70;99.90
9193;DHT22;4631;49.296;10.560;2022-07-23T13:26:41;27.80;99.90
9193;DHT22;4631;49.296;10.560;2022-07-23T13:29:08;28.00;99.90
9193;DHT22;4631;49.296;10.560;2022-07-23T13:31:35;28.00;99.90
9193;DHT22;4631;49.296;10.560;2022-07-23T13:34:03;27.80;99.90
9193;DHT22;4631;49.296;10.560;2022-07-23T13:36:30;27.70;99.90
9193;DHT22;4631;49.296;10.560;2022-07-23T13:38:57;27.60;99.90
9193;DHT22;4631;49.296;10.560;2022-07-23T13:41:24;27.60;99.90
9193;DHT22;4631;49.296;10.560;2022-07-23T13:43:51;27.70;99.90
9193;DHT22;4631;49.296;10.560;2022-07-23T13:46:17;27.70;99.90
9193;DHT22;4631;49.296;10.560;2022-07-23T13:48:44;27.60;99.90
9193;DHT22;4631;49.296;10.560;2022-07-23T13:51:12;27.50;99.90
9193;DHT22;4631;49.296;10.560;2022-07-23T13:53:39;27.40;99.90
9193;DHT22;4631;49.296;10.560;2022-07-23T13:56:05;27.30;99.90
9193;DHT22;4631;49.296;10.560;2022-07-23T13:58:32;27.20;99.90
9193;DHT22;4631;49.296;10.560;2022-07-23T14:00:59;27.10;99.90
9193;DHT22;4631;49.296;10.560;2022-07-23T14:03:25;27.10;99.90
9193;DHT22;4631;49.296;10.560;2022-07-23T14:05:52;27.30;99.90
9193;DHT22;4631;49.296;10.560;2022-07-23T14:08:20;27.50;99.90
9193;DHT22;4631;49.296;10.560;2022-07-23T14:10:47;27.80;99.90
9193;DHT22;4631;49.296;10.560;2022-07-23T14:13:13;28.00;99.90
9193;DHT22;4631;49.296;10.560;2022-07-23T14:15:40;28.10;99.90
9193;DHT22;4631;49.296;10.560;2022-07-23T14:18:07;28.10;99.90
9193;DHT22;4631;49.296;10.560;2022-07-23T14:20:34;28.00;99.90
9193;DHT22;4631;49.296;10.560;2022-07-23T14:23:01;27.90;99.90
9193;DHT22;4631;49.296;10.560;2022-07-23T14:25:29;27.80;99.90
9193;DHT22;4631;49.296;10.560;2022-07-23T14:27:56;28.00;99.90
9193;DHT22;4631;49.296;10.560;2022-07-23T14:30:22;28.40;99.90
9193;DHT22;4631;49.296;10.560;2022-07-23T14:32:49;28.60;99.90
9193;DHT22;4631;49.296;10.560;2022-07-23T14:35:16;28.80;99.90
9193;DHT22;4631;49.296;10.560;2022-07-23T14:37:44;29.10;99.90
9193;DHT22;4631;49.296;10.560;2022-07-23T14:40:11;29.20;99.90
9193;DHT22;4631;49.296;10.560;2022-07-23T14:42:39;29.30;99.90
9193;DHT22;4631;49.296;10.560;2022-07-23T14:45:06;29.60;99.90
9193;DHT22;4631;49.296;10.560;2022-07-23T14:47:32;29.80;99.90
9193;DHT22;4631;49.296;10.560;2022-07-23T14:49:59;29.70;99.90
9193;DHT22;4631;49.296;10.560;2022-07-23T14:52:26;29.60;99.90
9193;DHT22;4631;49.296;10.560;2022-07-23T14:54:52;29.30;99.90
9193;DHT22;4631;49.296;10.560;2022-07-23T14:57:19;29.00;99.90
9193;DHT22;4631;49.296;10.560;2022-07-23T14:59:47;28.90;99.90
9193;DHT22;4631;49.296;10.560;2022-07-23T15:02:14;28.80;99.90
9193;DHT22;4631;49.296;10.560;2022-07-23T15:04:40;28.70;99.90
9193;DHT22;4631;49.296;10.560;2022-07-23T15:07:07;28.60;99.90
9193;DHT22;4631;49.296;10.560;2022-07-23T15:09:33;28.50;99.90
9193;DHT22;4631;49.296;10.560;2022-07-23T15:12:00;28.40;99.90
9193;DHT22;4631;49.296;10.560;2022-07-23T15:14:27;28.40;99.90
9193;DHT22;4631;49.296;10.560;2022-07-23T15:16:55;28.30;99.90
9193;DHT22;4631;49.296;10.560;2022-07-23T15:19:21;28.60;99.90
9193;DHT22;4631;49.296;10.560;2022-07-23T15:21:48;28.80;99.90
9193;DHT22;4631;49.296;10.560;2022-07-23T15:24:15;28.90;99.90
9193;DHT22;4631;49.296;10.560;2022-07-23T15:26:41;28.80;99.90
9193;DHT22;4631;49.296;10.560;2022-07-23T15:29:08;28.60;99.90
9193;DHT22;4631;49.296;10.560;2022-07-23T15:31:35;28.40;99.90
9193;DHT22;4631;49.296;10.560;2022-07-23T15:34:03;28.30;99.90
9193;DHT22;4631;49.296;10.560;2022-07-23T15:36:30;28.10;99.90
9193;DHT22;4631;49.296;10.560;2022-07-23T15:38:56;28.00;99.90
9193;DHT22;4631;49.296;10.560;2022-07-23T15:41:23;27.90;99.90
9193;DHT22;4631;49.296;10.560;2022-07-23T15:43:50;27.90;99.90
9193;DHT22;4631;49.296;10.560;2022-07-23T15:46:17;27.90;99.90
9193;DHT22;4631;49.296;10.560;2022-07-23T15:48:43;27.90;99.90
9193;DHT22;4631;49.296;10.560;2022-07-23T15:51:12;28.00;99.90
9193;DHT22;4631;49.296;10.560;2022-07-23T15:53:38;28.00;99.90
9193;DHT22;4631;49.296;10.560;2022-07-23T15:56:05;28.10;99.90
9193;DHT22;4631;49.296;10.560;2022-07-23T15:58:32;28.40;99.90
9193;DHT22;4631;49.296;10.560;2022-07-23T16:00:59;28.50;99.90
9193;DHT22;4631;49.296;10.560;2022-07-23T16:03:28;28.60;99.90
9193;DHT22;4631;49.296;10.560;2022-07-23T16:05:55;28.80;99.90
9193;DHT22;4631;49.296;10.560;2022-07-23T16:08:23;28.70;99.90